Time;durP1;ratioP1;P1;durP2;ratioP2;P2;SDS_P1;SDS_P2;PMS_P1;PMS_P2;Temp;Humidity;BMP_temperature;BMP_pressure;BME280_temperature;BME280_humidity;BME280_pressure;Samples;Min_cycle;Max_cycle;Signal;HPM_P1;HPM_P2
2022/02/11 00:00:36;;;;;;;2.20;1.15;;;;;;;;;;6189009;23;20001;-74
2022/02/11 00:08:10;;;;;;;5.43;1.80;;;;;;;;;;6214534;23;20004;-73
2022/02/11 00:10:35;;;;;;;4.14;2.10;;;;;;;;;;6214868;23;19997;-74
2022/02/11 00:13:02;;;;;;;9.98;2.45;;;;;;;;;;6214284;23;20001;-74
2022/02/11 00:17:59;;;;;;;4.38;1.92;;;;;;;;;;6224763;23;19997;-74
2022/02/11 00:20:24;;;;;;;7.47;1.50;;;;;;;;;;6214498;23;20050;-74
2022/02/11 00:22:50;;;;;;;3.67;1.25;;;;;;;;;;6214252;23;19997;-74
2022/02/11 00:25:16;;;;;;;3.33;1.35;;;;;;;;;;6214265;23;19992;-73
2022/02/11 00:28:23;;;;;;;5.30;1.35;;;;;;;;;;6213969;23;20004;-73
2022/02/11 00:35:58;;;;;;;4.13;1.38;;;;;;;;;;6214441;23;20414;-73
2022/02/11 00:38:39;;;;;;;4.38;1.48;;;;;;;;;;6214669;23;19992;-71
2022/02/11 00:46:36;;;;;;;3.70;1.13;;;;;;;;;;6216295;23;20422;-74
2022/02/11 00:53:35;;;;;;;3.00;1.00;;;;;;;;;;6215792;23;20030;-74
2022/02/11 01:03:06;;;;;;;4.10;1.20;;;;;;;;;;6216100;23;20020;-74
2022/02/11 01:05:32;;;;;;;2.00;0.90;;;;;;;;;;6215458;23;19997;-75
2022/02/11 01:07:57;;;;;;;3.20;0.90;;;;;;;;;;6215277;23;20394;-74
2022/02/11 01:10:23;;;;;;;2.67;1.00;;;;;;;;;;6215373;23;20427;-74
2022/02/11 01:12:49;;;;;;;2.55;0.80;;;;;;;;;;6215035;23;19996;-74
2022/02/11 01:15:14;;;;;;;2.15;0.75;;;;;;;;;;6215263;23;20387;-75
2022/02/11 01:17:45;;;;;;;3.28;0.68;;;;;;;;;;6215557;23;20011;-75
2022/02/11 01:20:29;;;;;;;1.77;0.65;;;;;;;;;;6215280;23;19998;-74
2022/02/11 01:23:27;;;;;;;1.42;0.68;;;;;;;;;;6215389;23;19996;-74
2022/02/11 01:29:06;;;;;;;0.93;0.40;;;;;;;;;;6215356;23;20092;-74
2022/02/11 01:31:56;;;;;;;0.93;0.50;;;;;;;;;;6214872;23;20079;-74
2022/02/11 01:34:41;;;;;;;2.20;0.60;;;;;;;;;;6215171;23;19996;-74
2022/02/11 01:48:02;;;;;;;1.50;0.70;;;;;;;;;;6215510;23;20009;-73
2022/02/11 01:53:35;;;;;;;3.33;0.90;;;;;;;;;;6215040;23;20011;-74
2022/02/11 01:59:00;;;;;;;2.10;1.10;;;;;;;;;;6215057;23;20072;-74
2022/02/11 02:25:02;;;;;;;2.28;0.90;;;;;;;;;;6216679;23;20054;-74
2022/02/11 02:28:03;;;;;;;2.15;1.00;;;;;;;;;;6214934;23;20001;-74
2022/02/11 02:57:25;;;;;;;3.30;1.20;;;;;;;;;;6214647;23;20055;-73
2022/02/11 03:34:54;;;;;;;2.83;1.15;;;;;;;;;;6214945;23;20079;-74
2022/02/11 03:48:56;;;;;;;2.67;1.35;;;;;;;;;;6214277;23;20012;-74
2022/02/11 04:55:25;;;;;;;3.30;1.80;;;;;;;;;;6218378;23;20342;-78
2022/02/11 05:00:34;;;;;;;3.85;2.10;;;;;;;;;;6215971;23;20008;-78
2022/02/11 05:02:59;;;;;;;6.68;2.20;;;;;;;;;;6215532;23;19997;-79
2022/02/11 05:05:25;;;;;;;4.78;2.10;;;;;;;;;;6215361;23;19993;-77
2022/02/11 05:07:50;;;;;;;5.93;2.38;;;;;;;;;;6216028;23;20004;-78
2022/02/11 05:10:16;;;;;;;4.22;2.10;;;;;;;;;;6215926;23;20076;-78
2022/02/11 05:12:42;;;;;;;4.32;2.00;;;;;;;;;;6215735;23;20422;-78
2022/02/11 05:15:10;;;;;;;4.47;2.20;;;;;;;;;;6215940;23;19997;-78
2022/02/11 05:17:36;;;;;;;3.55;2.20;;;;;;;;;;6215606;23;20003;-78
2022/02/11 05:20:02;;;;;;;4.55;2.35;;;;;;;;;;6214736;23;20003;-77
2022/02/11 05:22:27;;;;;;;3.92;1.83;;;;;;;;;;6214021;23;20032;-77
2022/02/11 05:24:52;;;;;;;6.72;2.55;;;;;;;;;;6213819;23;20000;-78
2022/02/11 05:27:17;;;;;;;4.80;2.25;;;;;;;;;;6215630;23;20147;-77
2022/02/11 05:29:42;;;;;;;5.28;2.38;;;;;;;;;;6215689;23;20007;-77
2022/02/11 05:32:08;;;;;;;5.00;2.42;;;;;;;;;;6213908;23;20001;-77
2022/02/11 05:34:33;;;;;;;4.90;2.85;;;;;;;;;;6215179;23;20423;-77
2022/02/11 05:36:58;;;;;;;6.70;2.78;;;;;;;;;;6215252;23;20036;-77
2022/02/11 05:39:23;;;;;;;4.68;2.50;;;;;;;;;;6215692;23;20422;-77
2022/02/11 05:41:49;;;;;;;5.63;2.70;;;;;;;;;;6215243;23;20008;-77
2022/02/11 05:44:14;;;;;;;8.27;3.20;;;;;;;;;;6214991;23;20418;-78
2022/02/11 05:46:39;;;;;;;6.05;3.13;;;;;;;;;;6215350;23;20073;-77
2022/02/11 05:49:04;;;;;;;6.82;3.47;;;;;;;;;;6215207;23;20427;-79
2022/02/11 05:51:30;;;;;;;9.63;2.58;;;;;;;;;;6215178;23;20001;-78
2022/02/11 05:53:55;;;;;;;5.00;2.50;;;;;;;;;;6214831;23;20356;-77
2022/02/11 05:56:20;;;;;;;6.63;3.03;;;;;;;;;;6215240;23;19997;-78
2022/02/11 05:58:45;;;;;;;7.88;2.97;;;;;;;;;;6214055;23;19997;-76
2022/02/11 06:01:10;;;;;;;9.88;3.25;;;;;;;;;;6215615;23;19999;-77
2022/02/11 06:03:36;;;;;;;9.60;3.33;;;;;;;;;;6214794;23;19996;-78
2022/02/11 06:06:01;;;;;;;6.53;3.45;;;;;;;;;;6215217;23;20418;-77
2022/02/11 06:08:26;;;;;;;6.45;3.35;;;;;;;;;;6215088;23;20076;-77
2022/02/11 06:10:51;;;;;;;6.07;3.47;;;;;;;;;;6215239;23;20337;-77
2022/02/11 06:13:17;;;;;;;7.50;3.30;;;;;;;;;;6214968;23;20016;-77
2022/02/11 06:15:43;;;;;;;7.85;3.17;;;;;;;;;;6188232;23;20449;-78
2022/02/11 06:18:08;;;;;;;7.18;3.15;;;;;;;;;;6214844;23;20426;-76
2022/02/11 06:20:33;;;;;;;7.05;2.72;;;;;;;;;;6215450;23;20060;-77
2022/02/11 06:22:58;;;;;;;6.62;3.00;;;;;;;;;;6215272;23;20019;-78
2022/02/11 06:25:24;;;;;;;6.63;2.83;;;;;;;;;;6215341;23;20056;-75
2022/02/11 06:27:49;;;;;;;8.00;3.30;;;;;;;;;;6215253;23;20031;-77
2022/02/11 06:30:14;;;;;;;7.38;2.90;;;;;;;;;;6215279;23;20453;-78
2022/02/11 06:32:39;;;;;;;7.78;3.38;;;;;;;;;;6214733;23;20000;-78
2022/02/11 06:35:05;;;;;;;6.38;2.72;;;;;;;;;;6214644;23;20070;-77
2022/02/11 06:37:30;;;;;;;7.93;3.30;;;;;;;;;;6214339;23;20001;-79
2022/02/11 06:39:55;;;;;;;7.97;3.10;;;;;;;;;;6213197;23;20001;-78
2022/02/11 06:42:21;;;;;;;7.63;3.22;;;;;;;;;;6214648;23;20004;-78
2022/02/11 06:44:46;;;;;;;7.78;3.20;;;;;;;;;;6214329;23;20000;-77
2022/02/11 06:47:11;;;;;;;10.20;3.05;;;;;;;;;;6214660;23;20001;-78
2022/02/11 06:49:36;;;;;;;7.65;2.65;;;;;;;;;;6214748;23;20441;-77
2022/02/11 06:52:02;;;;;;;5.82;2.53;;;;;;;;;;6214332;23;20052;-76
2022/02/11 06:54:27;;;;;;;5.97;3.00;;;;;;;;;;6214411;23;20024;-77
2022/02/11 06:56:52;;;;;;;6.20;2.96;;;;;;;;;;6187828;23;20497;-78
2022/02/11 06:59:17;;;;;;;11.95;3.70;;;;;;;;;;6214428;23;19996;-77
2022/02/11 07:01:43;;;;;;;8.63;3.83;;;;;;;;;;6188074;23;20050;-77
2022/02/11 07:04:08;;;;;;;8.73;3.40;;;;;;;;;;6214553;23;19997;-77
2022/02/11 07:06:33;;;;;;;12.52;4.45;;;;;;;;;;6214586;23;20112;-77
2022/02/11 07:08:58;;;;;;;11.90;4.40;;;;;;;;;;6214504;23;20000;-77
2022/02/11 07:11:23;;;;;;;8.23;3.17;;;;;;;;;;6214691;23;20023;-77
2022/02/11 07:13:49;;;;;;;7.08;2.86;;;;;;;;;;6214134;23;20063;-75
2022/02/11 07:16:17;;;;;;;7.03;2.65;;;;;;;;;;6214313;23;19997;-74
2022/02/11 07:18:42;;;;;;;9.95;3.50;;;;;;;;;;6214286;23;19993;-76
2022/02/11 07:21:07;;;;;;;8.50;2.85;;;;;;;;;;6214143;23;20449;-76
2022/02/11 07:23:33;;;;;;;6.25;3.10;;;;;;;;;;6187331;23;19988;-76
2022/02/11 07:25:58;;;;;;;6.82;2.80;;;;;;;;;;6214410;23;20004;-76
2022/02/11 07:28:24;;;;;;;6.82;3.55;;;;;;;;;;6214532;23;19996;-77
2022/02/11 07:30:50;;;;;;;5.18;2.60;;;;;;;;;;6214404;23;20143;-75
2022/02/11 07:33:16;;;;;;;10.93;2.92;;;;;;;;;;6214543;23;20516;-76
2022/02/11 07:35:41;;;;;;;5.25;2.67;;;;;;;;;;6214424;23;19997;-76
2022/02/11 07:38:06;;;;;;;7.15;2.50;;;;;;;;;;6214395;23;19992;-75
2022/02/11 07:40:31;;;;;;;7.88;2.72;;;;;;;;;;6214548;23;20385;-77
2022/02/11 07:42:56;;;;;;;5.32;2.78;;;;;;;;;;6214797;23;20443;-78
2022/02/11 07:45:27;;;;;;;5.93;2.55;;;;;;;;;;6225044;23;20004;-76
2022/02/11 07:47:53;;;;;;;6.32;2.80;;;;;;;;;;6215103;23;20000;-76
2022/02/11 07:50:18;;;;;;;4.85;2.22;;;;;;;;;;6216443;23;20487;-77
2022/02/11 07:52:44;;;;;;;5.78;2.53;;;;;;;;;;6216466;23;20000;-77
2022/02/11 07:55:09;;;;;;;5.03;2.28;;;;;;;;;;6216362;23;20441;-76
2022/02/11 07:57:34;;;;;;;7.82;2.70;;;;;;;;;;6216323;23;19997;-77
2022/02/11 08:00:04;;;;;;;7.50;2.85;;;;;;;;;;6216548;23;20397;-78
2022/02/11 08:02:30;;;;;;;8.93;3.20;;;;;;;;;;6214686;23;20367;-79
2022/02/11 08:04:55;;;;;;;7.18;2.70;;;;;;;;;;6216374;23;19992;-78
2022/02/11 08:07:20;;;;;;;5.97;2.88;;;;;;;;;;6215059;23;20472;-77
2022/02/11 08:09:46;;;;;;;6.95;3.17;;;;;;;;;;6216292;23;20008;-76
2022/02/11 08:12:12;;;;;;;6.20;2.72;;;;;;;;;;6215997;23;20007;-77
2022/02/11 08:14:37;;;;;;;5.63;2.80;;;;;;;;;;6216258;23;20492;-76
2022/02/11 08:17:02;;;;;;;7.03;3.17;;;;;;;;;;6216007;23;19997;-77
2022/02/11 08:19:27;;;;;;;7.38;2.72;;;;;;;;;;6215974;23;20001;-77
2022/02/11 08:21:59;;;;;;;5.45;2.70;;;;;;;;;;6214389;23;19993;-76
2022/02/11 08:24:24;;;;;;;5.47;2.80;;;;;;;;;;6215812;23;19996;-76
2022/02/11 08:26:50;;;;;;;6.88;3.25;;;;;;;;;;6215785;23;19996;-76
2022/02/11 08:29:21;;;;;;;7.75;3.15;;;;;;;;;;6215760;23;20003;-76
2022/02/11 08:31:46;;;;;;;6.13;3.10;;;;;;;;;;6213937;23;19996;-76
2022/02/11 08:34:11;;;;;;;5.65;2.92;;;;;;;;;;6213801;23;20405;-76
2022/02/11 08:36:36;;;;;;;6.97;2.60;;;;;;;;;;6215543;23;20001;-75
2022/02/11 08:39:01;;;;;;;5.68;2.83;;;;;;;;;;6214272;23;20065;-75
2022/02/11 08:41:27;;;;;;;6.43;3.13;;;;;;;;;;6215623;23;20012;-75
2022/02/11 08:43:52;;;;;;;6.70;3.42;;;;;;;;;;6213994;23;19997;-76
2022/02/11 08:46:19;;;;;;;6.20;3.10;;;;;;;;;;6215307;23;20500;-75
2022/02/11 08:48:44;;;;;;;9.07;3.17;;;;;;;;;;6188863;23;20359;-74
2022/02/11 08:51:09;;;;;;;6.95;3.40;;;;;;;;;;6215464;23;20004;-75
2022/02/11 08:53:35;;;;;;;6.63;3.17;;;;;;;;;;6214933;23;20001;-76
2022/02/11 08:56:03;;;;;;;6.95;3.05;;;;;;;;;;6215169;23;20001;-75
2022/02/11 08:58:28;;;;;;;11.40;4.85;;;;;;;;;;6215123;23;20444;-75
2022/02/11 09:00:53;;;;;;;6.15;2.78;;;;;;;;;;6215156;23;20067;-74
2022/02/11 09:03:19;;;;;;;5.40;2.78;;;;;;;;;;6215411;23;19993;-75
2022/02/11 09:05:45;;;;;;;7.57;2.45;;;;;;;;;;6215995;23;20031;-76
2022/02/11 09:08:10;;;;;;;5.65;2.85;;;;;;;;;;6216479;23;19996;-74
2022/02/11 09:10:35;;;;;;;10.70;2.88;;;;;;;;;;6215478;23;20315;-75
2022/02/11 09:13:01;;;;;;;4.82;2.28;;;;;;;;;;6215148;23;20022;-75
2022/02/11 09:15:27;;;;;;;6.03;2.58;;;;;;;;;;6215054;23;20331;-75
2022/02/11 09:17:53;;;;;;;6.28;2.53;;;;;;;;;;6215102;23;20071;-76
2022/02/11 09:20:18;;;;;;;12.38;3.00;;;;;;;;;;6215248;23;20430;-77
2022/02/11 09:22:43;;;;;;;5.07;2.45;;;;;;;;;;6215270;23;19992;-76
2022/02/11 09:25:09;;;;;;;9.63;3.63;;;;;;;;;;6215471;23;19996;-76
2022/02/11 09:27:42;;;;;;;6.78;2.70;;;;;;;;;;6215594;23;20001;-76
2022/02/11 09:30:08;;;;;;;6.10;3.00;;;;;;;;;;6215686;23;19993;-76
2022/02/11 09:32:34;;;;;;;7.53;2.72;;;;;;;;;;6188900;23;20283;-77
2022/02/11 09:34:59;;;;;;;7.07;2.92;;;;;;;;;;6215514;23;20492;-75
2022/02/11 09:37:25;;;;;;;6.45;2.90;;;;;;;;;;6215619;23;20028;-76
2022/02/11 09:39:51;;;;;;;6.82;2.30;;;;;;;;;;6215410;23;20000;-77
2022/02/11 09:42:17;;;;;;;9.98;2.78;;;;;;;;;;6215252;23;20432;-77
2022/02/11 09:44:42;;;;;;;7.85;3.30;;;;;;;;;;6215190;23;20468;-76
2022/02/11 09:47:07;;;;;;;10.18;3.50;;;;;;;;;;6215604;23;20007;-77
2022/02/11 09:49:33;;;;;;;7.63;2.85;;;;;;;;;;6215129;23;19992;-76
2022/02/11 09:51:58;;;;;;;5.57;2.20;;;;;;;;;;6214988;23;20027;-76
2022/02/11 09:54:24;;;;;;;7.70;2.90;;;;;;;;;;6215136;23;20001;-77
2022/02/11 09:56:50;;;;;;;8.38;2.55;;;;;;;;;;6215137;23;20076;-76
2022/02/11 09:59:15;;;;;;;9.23;3.08;;;;;;;;;;6188514;23;20434;-75
2022/02/11 10:01:41;;;;;;;7.75;3.03;;;;;;;;;;6215086;23;20001;-74
2022/02/11 10:04:11;;;;;;;5.97;2.75;;;;;;;;;;6214854;23;20027;-75
2022/02/11 10:06:37;;;;;;;7.07;2.58;;;;;;;;;;6215112;23;20008;-76
2022/02/11 10:09:03;;;;;;;8.73;2.88;;;;;;;;;;6215334;23;20004;-74
2022/02/11 10:11:28;;;;;;;5.78;2.25;;;;;;;;;;6214714;23;20001;-75
2022/02/11 10:13:55;;;;;;;7.78;2.90;;;;;;;;;;6214776;23;20012;-76
2022/02/11 10:16:23;;;;;;;6.68;3.40;;;;;;;;;;6213861;23;20001;-74
2022/02/11 10:18:50;;;;;;;7.88;2.72;;;;;;;;;;6214664;23;20063;-75
2022/02/11 10:21:24;;;;;;;7.78;2.90;;;;;;;;;;6214926;23;19992;-76
2022/02/11 10:23:54;;;;;;;10.60;3.55;;;;;;;;;;6214936;23;20020;-76
2022/02/11 10:26:20;;;;;;;6.97;2.95;;;;;;;;;;6214727;23;20452;-76
2022/02/11 10:28:51;;;;;;;8.00;2.45;;;;;;;;;;6214747;23;20072;-76
2022/02/11 10:31:21;;;;;;;5.22;2.33;;;;;;;;;;6212486;23;20426;-75
2022/02/11 10:33:54;;;;;;;8.77;2.70;;;;;;;;;;6214511;23;20001;-75
2022/02/11 10:36:21;;;;;;;7.78;2.83;;;;;;;;;;6187463;23;20000;-75
2022/02/11 10:38:59;;;;;;;10.18;2.83;;;;;;;;;;6214230;23;20001;-75
2022/02/11 10:41:24;;;;;;;4.70;2.08;;;;;;;;;;6188065;23;19996;-76
2022/02/11 10:43:51;;;;;;;8.40;2.55;;;;;;;;;;6213950;23;20019;-76
2022/02/11 10:46:16;;;;;;;5.30;2.65;;;;;;;;;;6214781;23;20005;-75
2022/02/11 10:48:42;;;;;;;5.40;2.20;;;;;;;;;;6186434;23;20004;-76
2022/02/11 10:51:08;;;;;;;9.85;2.83;;;;;;;;;;6214478;23;20000;-75
2022/02/11 10:53:39;;;;;;;6.70;2.63;;;;;;;;;;6214492;23;20003;-75
2022/02/11 10:56:04;;;;;;;7.45;2.80;;;;;;;;;;6214771;23;20410;-75
2022/02/11 10:58:50;;;;;;;4.20;2.13;;;;;;;;;;6187619;23;19999;-75
2022/02/11 11:01:15;;;;;;;6.63;2.58;;;;;;;;;;6188121;23;20000;-75
2022/02/11 11:03:41;;;;;;;7.60;1.90;;;;;;;;;;6214074;23;20370;-74
2022/02/11 11:06:08;;;;;;;9.38;2.55;;;;;;;;;;6212245;23;20457;-75
2022/02/11 11:08:40;;;;;;;10.60;2.88;;;;;;;;;;6214334;23;20004;-75
2022/02/11 11:11:08;;;;;;;5.53;2.88;;;;;;;;;;6214485;23;20426;-75
2022/02/11 11:13:35;;;;;;;10.73;2.97;;;;;;;;;;6187984;23;20004;-75
2022/02/11 11:16:01;;;;;;;8.70;2.50;;;;;;;;;;6214458;23;20123;-74
2022/02/11 11:18:30;;;;;;;8.50;2.63;;;;;;;;;;6185663;23;20000;-75
2022/02/11 11:20:56;;;;;;;5.85;2.28;;;;;;;;;;6188090;23;19993;-76
2022/02/11 11:23:23;;;;;;;6.35;2.53;;;;;;;;;;6214192;23;20476;-75
2022/02/11 11:26:03;;;;;;;6.05;2.25;;;;;;;;;;6214025;23;19999;-75
2022/02/11 11:28:37;;;;;;;7.60;2.50;;;;;;;;;;6213372;23;20310;-75
2022/02/11 11:31:10;;;;;;;6.47;2.30;;;;;;;;;;6214360;23;19996;-75
2022/02/11 11:33:35;;;;;;;5.07;2.17;;;;;;;;;;6187514;23;20004;-76
2022/02/11 11:36:03;;;;;;;4.13;2.00;;;;;;;;;;6214313;23;19997;-75
2022/02/11 11:38:39;;;;;;;6.40;2.13;;;;;;;;;;6187532;23;20334;-77
2022/02/11 11:41:24;;;;;;;7.65;2.40;;;;;;;;;;6214125;23;19992;-75
2022/02/11 11:43:51;;;;;;;4.82;2.08;;;;;;;;;;6187298;23;20430;-74
2022/02/11 11:46:16;;;;;;;7.25;2.45;;;;;;;;;;6213970;23;20009;-75
2022/02/11 11:48:52;;;;;;;6.08;2.38;;;;;;;;;;6212788;23;20338;-75
2022/02/11 11:51:17;;;;;;;5.63;2.25;;;;;;;;;;6214899;23;20055;-75
2022/02/11 11:53:42;;;;;;;7.32;2.35;;;;;;;;;;6188203;23;20004;-77
2022/02/11 11:56:26;;;;;;;7.60;2.50;;;;;;;;;;6213959;23;20012;-75
2022/02/11 11:58:51;;;;;;;6.07;2.30;;;;;;;;;;6214108;23;20423;-75
2022/02/11 12:01:17;;;;;;;4.68;2.50;;;;;;;;;;6214254;23;20063;-77
2022/02/11 12:04:02;;;;;;;4.95;2.20;;;;;;;;;;6213855;23;20001;-77
2022/02/11 12:06:30;;;;;;;6.88;2.13;;;;;;;;;;6213835;23;20011;-76
2022/02/11 12:08:56;;;;;;;5.88;2.38;;;;;;;;;;6214389;23;19997;-76
2022/02/11 12:11:23;;;;;;;4.88;2.28;;;;;;;;;;6214375;23;20025;-76
2022/02/11 12:13:48;;;;;;;5.88;2.78;;;;;;;;;;6213934;23;20492;-75
2022/02/11 12:16:13;;;;;;;6.18;1.92;;;;;;;;;;6214081;23;20005;-76
2022/02/11 12:18:40;;;;;;;5.38;2.05;;;;;;;;;;6187620;23;20004;-76
2022/02/11 12:21:06;;;;;;;7.60;2.20;;;;;;;;;;6213797;23;19997;-76
2022/02/11 12:29:02;;;;;;;3.50;1.73;;;;;;;;;;6214135;23;20008;-75
2022/02/11 12:31:29;;;;;;;5.03;1.77;;;;;;;;;;6214188;23;20079;-76
2022/02/11 12:34:10;;;;;;;4.28;1.75;;;;;;;;;;6213812;23;20004;-75
2022/02/11 12:36:35;;;;;;;4.93;1.40;;;;;;;;;;6215495;23;19997;-75
2022/02/11 12:39:00;;;;;;;8.45;3.20;;;;;;;;;;6215586;23;20054;-75
2022/02/11 12:41:40;;;;;;;2.90;1.50;;;;;;;;;;6215604;23;20019;-74
2022/02/11 12:44:06;;;;;;;3.05;1.25;;;;;;;;;;6188864;23;20000;-75
2022/02/11 12:46:31;;;;;;;3.53;1.40;;;;;;;;;;6215760;23;20004;-74
2022/02/11 12:48:58;;;;;;;4.05;1.48;;;;;;;;;;6215531;23;20084;-75
2022/02/11 12:51:24;;;;;;;3.72;1.50;;;;;;;;;;6215860;23;20000;-75
2022/02/11 12:54:01;;;;;;;4.78;1.35;;;;;;;;;;6188945;23;20330;-74
2022/02/11 12:56:31;;;;;;;5.25;1.20;;;;;;;;;;6188738;23;20027;-75
2022/02/11 12:59:06;;;;;;;2.30;1.10;;;;;;;;;;6215890;23;19996;-75
2022/02/11 13:01:32;;;;;;;4.15;1.30;;;;;;;;;;6188688;23;20370;-74
2022/02/11 13:03:58;;;;;;;3.88;1.55;;;;;;;;;;6215144;23;20019;-76
2022/02/11 13:06:24;;;;;;;4.40;1.40;;;;;;;;;;6215565;23;20303;-73
2022/02/11 13:08:59;;;;;;;8.02;1.80;;;;;;;;;;6215613;23;20000;-75
2022/02/11 13:11:27;;;;;;;6.13;1.80;;;;;;;;;;6215369;23;20080;-74
2022/02/11 13:14:04;;;;;;;4.33;1.87;;;;;;;;;;6188370;23;20337;-75
2022/02/11 13:16:29;;;;;;;4.07;1.85;;;;;;;;;;6215243;23;20238;-74
2022/02/11 13:19:10;;;;;;;6.78;1.73;;;;;;;;;;6215658;23;20035;-74
2022/02/11 13:21:36;;;;;;;5.25;2.83;;;;;;;;;;6189104;23;20076;-74
2022/02/11 13:24:03;;;;;;;4.85;1.63;;;;;;;;;;6215620;23;20028;-77
2022/02/11 13:26:28;;;;;;;6.20;2.40;;;;;;;;;;6215665;23;20012;-75
2022/02/11 13:28:55;;;;;;;6.00;2.08;;;;;;;;;;6216103;23;20000;-76
2022/02/11 13:31:20;;;;;;;4.97;1.92;;;;;;;;;;6189126;23;20007;-76
2022/02/11 13:33:46;;;;;;;6.50;2.22;;;;;;;;;;6215310;23;20005;-76
2022/02/11 13:36:22;;;;;;;7.32;2.28;;;;;;;;;;6215641;23;20104;-77
2022/02/11 13:38:48;;;;;;;5.50;2.13;;;;;;;;;;6215487;23;19993;-76
2022/02/11 13:41:15;;;;;;;6.20;2.30;;;;;;;;;;6214726;23;19996;-76
2022/02/11 13:43:49;;;;;;;6.75;2.70;;;;;;;;;;6214811;23;20050;-76
2022/02/11 13:46:27;;;;;;;6.10;2.40;;;;;;;;;;6213893;23;20012;-76
2022/02/11 13:48:56;;;;;;;5.82;2.88;;;;;;;;;;6215099;23;20331;-76
2022/02/11 13:51:21;;;;;;;7.20;2.63;;;;;;;;;;6214301;23;20064;-76
2022/02/11 13:53:49;;;;;;;8.75;3.10;;;;;;;;;;6214578;23;20028;-75
2022/02/11 13:56:15;;;;;;;6.10;2.70;;;;;;;;;;6214651;23;20070;-77
2022/02/11 13:59:01;;;;;;;9.02;3.25;;;;;;;;;;6214981;23;20001;-76
2022/02/11 14:01:27;;;;;;;5.32;2.38;;;;;;;;;;6214542;23;20434;-75
2022/02/11 14:03:56;;;;;;;7.82;2.80;;;;;;;;;;6214524;23;20064;-77
2022/02/11 14:06:23;;;;;;;9.98;2.65;;;;;;;;;;6187959;23;20083;-77
2022/02/11 14:08:49;;;;;;;12.55;3.35;;;;;;;;;;6187968;23;20437;-76
2022/02/11 14:11:19;;;;;;;6.60;2.58;;;;;;;;;;6215570;23;20005;-78
2022/02/11 14:13:45;;;;;;;8.75;2.50;;;;;;;;;;6188822;23;20323;-77
2022/02/11 14:16:10;;;;;;;4.45;1.92;;;;;;;;;;6215089;23;20010;-77
2022/02/11 14:18:40;;;;;;;10.02;2.55;;;;;;;;;;6215938;23;19993;-79
2022/02/11 14:21:05;;;;;;;8.13;2.90;;;;;;;;;;6216817;23;20003;-79
2022/02/11 14:23:30;;;;;;;7.22;2.58;;;;;;;;;;6190501;23;19997;-80
2022/02/11 14:25:55;;;;;;;7.07;2.65;;;;;;;;;;6215809;23;20004;-77
2022/02/11 14:28:24;;;;;;;11.55;3.22;;;;;;;;;;6215182;23;19997;-78
2022/02/11 14:30:49;;;;;;;5.25;2.20;;;;;;;;;;6215248;23;19997;-77
2022/02/11 14:33:14;;;;;;;7.63;1.70;;;;;;;;;;6215009;23;20116;-78
2022/02/11 14:35:40;;;;;;;7.35;2.08;;;;;;;;;;6188419;23;19989;-78
2022/02/11 14:38:05;;;;;;;6.65;1.90;;;;;;;;;;6188666;23;20024;-79
2022/02/11 14:40:33;;;;;;;3.88;1.75;;;;;;;;;;6214873;23;20000;-79
2022/02/11 14:43:03;;;;;;;9.80;2.03;;;;;;;;;;6213971;23;20046;-79
2022/02/11 14:45:28;;;;;;;9.52;1.85;;;;;;;;;;6215867;23;20004;-77
2022/02/11 14:47:53;;;;;;;7.25;2.30;;;;;;;;;;6215913;23;20007;-77
2022/02/11 14:50:18;;;;;;;9.05;2.33;;;;;;;;;;6215205;23;20000;-77
2022/02/11 14:52:44;;;;;;;12.38;2.20;;;;;;;;;;6215066;23;20003;-77
2022/02/11 14:55:09;;;;;;;6.13;1.70;;;;;;;;;;6213837;23;20472;-77
2022/02/11 14:57:34;;;;;;;3.45;1.60;;;;;;;;;;6214638;23;20382;-78
2022/02/11 15:00:00;;;;;;;10.15;1.70;;;;;;;;;;6215157;23;20001;-76
2022/02/11 15:02:25;;;;;;;4.78;1.88;;;;;;;;;;6215197;23;20020;-76
2022/02/11 15:04:51;;;;;;;12.10;2.78;;;;;;;;;;6214416;23;19992;-77
2022/02/11 15:07:16;;;;;;;8.43;2.35;;;;;;;;;;6214285;23;20063;-77
2022/02/11 15:09:41;;;;;;;6.68;1.77;;;;;;;;;;6214939;23;20430;-79
2022/02/11 15:12:09;;;;;;;3.92;1.90;;;;;;;;;;6215409;23;20001;-79
2022/02/11 15:14:35;;;;;;;10.07;2.00;;;;;;;;;;6188574;23;20029;-78
2022/02/11 15:17:00;;;;;;;6.93;1.75;;;;;;;;;;6215166;23;20536;-78
2022/02/11 15:19:25;;;;;;;5.13;1.70;;;;;;;;;;6214347;23;20481;-77
2022/02/11 15:21:51;;;;;;;7.65;1.77;;;;;;;;;;6213952;23;20026;-79
2022/02/11 15:24:16;;;;;;;8.23;1.63;;;;;;;;;;6187765;23;19996;-76
2022/02/11 15:26:41;;;;;;;8.20;1.52;;;;;;;;;;6215257;23;20001;-75
2022/02/11 15:29:06;;;;;;;6.47;2.03;;;;;;;;;;6214484;23;20000;-76
2022/02/11 15:31:32;;;;;;;4.70;1.50;;;;;;;;;;6214593;23;20450;-77
2022/02/11 15:33:58;;;;;;;5.45;1.25;;;;;;;;;;6214104;23;20005;-77
2022/02/11 15:36:24;;;;;;;5.05;1.33;;;;;;;;;;6214440;23;20449;-76
2022/02/11 15:38:49;;;;;;;6.57;0.98;;;;;;;;;;6214300;23;19993;-77
2022/02/11 15:41:14;;;;;;;5.95;1.20;;;;;;;;;;6213954;23;20060;-77
2022/02/11 15:43:40;;;;;;;7.97;1.50;;;;;;;;;;6214173;23;19997;-76
2022/02/11 15:46:06;;;;;;;2.72;0.82;;;;;;;;;;6208755;23;20004;-75
2022/02/11 15:48:33;;;;;;;3.15;1.30;;;;;;;;;;6214317;23;19992;-76
2022/02/11 15:51:00;;;;;;;3.60;1.42;;;;;;;;;;6214373;23;20640;-76
2022/02/11 15:53:25;;;;;;;3.88;1.20;;;;;;;;;;6214019;23;19996;-77
2022/02/11 15:55:51;;;;;;;3.47;1.17;;;;;;;;;;6212493;23;20023;-77
2022/02/11 15:58:22;;;;;;;5.78;1.45;;;;;;;;;;6214189;23;19992;-76
2022/02/11 16:00:47;;;;;;;3.80;1.48;;;;;;;;;;6214637;23;19993;-76
2022/02/11 16:03:12;;;;;;;4.95;1.40;;;;;;;;;;6213993;23;20000;-77
2022/02/11 16:05:38;;;;;;;5.63;1.50;;;;;;;;;;6214119;23;19997;-77
2022/02/11 16:08:03;;;;;;;8.55;1.90;;;;;;;;;;6215058;23;20445;-76
2022/02/11 16:10:29;;;;;;;6.80;1.70;;;;;;;;;;6215729;23;20477;-75
2022/02/11 16:12:54;;;;;;;7.78;1.67;;;;;;;;;;6216355;23;20003;-77
2022/02/11 16:15:20;;;;;;;5.63;2.10;;;;;;;;;;6215913;23;20019;-76
2022/02/11 16:18:05;;;;;;;10.70;2.42;;;;;;;;;;6214797;23;20001;-76
2022/02/11 16:20:34;;;;;;;5.43;1.90;;;;;;;;;;6216458;23;19992;-76
2022/02/11 16:23:00;;;;;;;6.70;1.83;;;;;;;;;;6216694;23;20437;-76
2022/02/11 16:25:25;;;;;;;3.95;1.83;;;;;;;;;;6216433;23;20000;-77
2022/02/11 16:27:53;;;;;;;5.50;2.00;;;;;;;;;;6216754;23;20333;-76
2022/02/11 16:30:19;;;;;;;3.85;2.30;;;;;;;;;;6216380;23;20028;-75
2022/02/11 16:32:44;;;;;;;4.75;2.05;;;;;;;;;;6215725;23;20422;-76
2022/02/11 16:35:09;;;;;;;5.47;2.63;;;;;;;;;;6215936;23;20004;-77
2022/02/11 16:37:35;;;;;;;5.30;2.67;;;;;;;;;;6217615;23;20361;-78
2022/02/11 16:40:00;;;;;;;3.97;2.58;;;;;;;;;;6219171;23;19993;-77
2022/02/11 16:42:25;;;;;;;6.78;3.00;;;;;;;;;;6214886;23;19997;-75
2022/02/11 16:47:24;;;;;;;5.25;2.70;;;;;;;;;;6215135;23;20075;-74
2022/02/11 16:49:51;;;;;;;8.07;3.38;;;;;;;;;;6214032;23;20001;-74
2022/02/11 16:52:17;;;;;;;9.48;3.38;;;;;;;;;;6214453;23;20456;-74
2022/02/11 16:54:43;;;;;;;6.03;3.35;;;;;;;;;;6216295;23;20000;-74
2022/02/11 16:57:08;;;;;;;6.22;3.67;;;;;;;;;;6216104;23;19997;-74
2022/02/11 16:59:33;;;;;;;9.95;3.33;;;;;;;;;;6214254;23;20000;-74
2022/02/11 17:02:00;;;;;;;5.03;3.13;;;;;;;;;;6215686;23;20000;-74
2022/02/11 17:04:25;;;;;;;7.05;3.33;;;;;;;;;;6213844;23;20084;-74
2022/02/11 17:06:50;;;;;;;6.20;3.67;;;;;;;;;;6215676;23;20240;-74
2022/02/11 17:09:15;;;;;;;6.75;3.65;;;;;;;;;;6214257;23;20007;-74
2022/02/11 17:11:41;;;;;;;7.40;3.33;;;;;;;;;;6214208;23;20087;-74
2022/02/11 17:14:06;;;;;;;8.32;4.25;;;;;;;;;;6215797;23;20079;-75
2022/02/11 17:16:31;;;;;;;10.63;4.28;;;;;;;;;;6213487;23;20030;-74
2022/02/11 17:18:56;;;;;;;9.48;5.28;;;;;;;;;;6215786;23;20015;-74
2022/02/11 17:21:22;;;;;;;11.38;5.00;;;;;;;;;;6215644;23;19992;-74
2022/02/11 17:23:47;;;;;;;14.80;6.35;;;;;;;;;;6216616;23;20071;-75
2022/02/11 17:26:12;;;;;;;11.05;5.18;;;;;;;;;;6215657;23;20075;-74
2022/02/11 17:28:37;;;;;;;12.45;5.47;;;;;;;;;;6217022;23;19993;-75
2022/02/11 17:31:03;;;;;;;9.95;5.47;;;;;;;;;;6216925;23;20000;-75
2022/02/11 17:33:28;;;;;;;13.85;6.68;;;;;;;;;;6216435;23;20024;-75
2022/02/11 17:35:53;;;;;;;16.00;6.50;;;;;;;;;;6216165;23;20434;-75
2022/02/11 17:38:19;;;;;;;12.60;5.65;;;;;;;;;;6214734;23;20434;-75
2022/02/11 17:40:44;;;;;;;11.77;5.65;;;;;;;;;;6215928;23;20418;-75
2022/02/11 17:43:14;;;;;;;13.07;5.88;;;;;;;;;;6214138;23;19997;-75
2022/02/11 17:45:39;;;;;;;12.55;5.68;;;;;;;;;;6215933;23;20040;-74
2022/02/11 17:50:49;;;;;;;12.02;6.38;;;;;;;;;;6218785;23;20058;-74
2022/02/11 17:53:14;;;;;;;14.90;6.60;;;;;;;;;;6189381;23;20377;-74
2022/02/11 17:55:40;;;;;;;12.75;6.30;;;;;;;;;;6216094;23;19997;-75
2022/02/11 17:58:05;;;;;;;17.02;7.82;;;;;;;;;;6216095;23;20043;-75
2022/02/11 18:00:30;;;;;;;15.45;7.00;;;;;;;;;;6189474;23;19993;-74
2022/02/11 18:02:56;;;;;;;12.68;7.05;;;;;;;;;;6189033;23;20004;-74
2022/02/11 18:05:22;;;;;;;13.82;6.63;;;;;;;;;;6214483;23;20088;-75
2022/02/11 18:07:48;;;;;;;17.48;7.95;;;;;;;;;;6215716;23;20004;-75
2022/02/11 18:10:15;;;;;;;13.18;6.75;;;;;;;;;;6215352;23;20000;-74
2022/02/11 18:12:41;;;;;;;14.68;8.15;;;;;;;;;;6188448;23;20000;-75
2022/02/11 18:15:06;;;;;;;15.45;8.57;;;;;;;;;;6214828;23;20437;-74
2022/02/11 18:17:32;;;;;;;16.73;8.35;;;;;;;;;;6214761;23;20022;-74
2022/02/11 18:19:58;;;;;;;18.15;9.18;;;;;;;;;;6188424;23;20024;-75
2022/02/11 18:22:23;;;;;;;15.13;7.95;;;;;;;;;;6215010;23;20001;-74
2022/02/11 18:24:48;;;;;;;16.88;9.07;;;;;;;;;;6215328;23;20035;-74